WetterOnline ( https://www.wetteronline.de )

Wetter aktuell Fürstenzell

Aktuelles Wetter: Fürstenzell (480m)

6-stündlich | Neueste Meldungen
Ortszeit Temperatur Wetter
Mi, 22.01. 13:00 -3.4° C Nebel
Mi, 22.01. 7:00 -3.4° C Nebel
Mi, 22.01. 1:00 -2.3° C bedeckt
Di, 21.01. 19:00 -1.6° C bedeckt
Di, 21.01. 13:00 -1.1° C bewölkt
Di, 21.01. 7:00 -3.7° C bedeckt
Di, 21.01. 1:00 -2.2° C wolkenlos
Mo, 20.01. 19:00 -0.6° C wolkenlos
Ortszeit Temperatur Wetter
Mi, 22.01. 14:30 -3.2° C bedeckt
Mi, 22.01. 14:20 -3.2° C bedeckt
Mi, 22.01. 14:10 -3.1° C bedeckt
Mi, 22.01. 14:00 -3.2° C bedeckt
Mi, 22.01. 13:50 -3.2° C bedeckt
Mi, 22.01. 13:40 -3.5° C bedeckt
Mi, 22.01. 13:30 -3.3° C bedeckt
Mi, 22.01. 13:00 -3.4° C Nebel
Mi, 22.01. 12:30 -3.4° C Nebel
Mi, 22.01. 12:00 -3.4° C Nebel
Mi, 22.01. 11:30 -3.5° C bedeckt
Ortszeit Relative Feuchte Sichtweite
Mi, 22.01. 13:00 98% 0.6 km
Mi, 22.01. 7:00 99% 100 m
Mi, 22.01. 1:00 96% 2.2 km
Di, 21.01. 19:00 94% 6 km
Di, 21.01. 13:00 84% 18 km
Di, 21.01. 7:00 97% 4.6 km
Di, 21.01. 1:00 87% 30 km
Mo, 20.01. 19:00 88% 30 km
Ortszeit Relative Feuchte Sichtweite
Mi, 22.01. 14:30 98% 2.3 km
Mi, 22.01. 14:20 98% -
Mi, 22.01. 14:10 97% -
Mi, 22.01. 14:00 96% 2.3 km
Mi, 22.01. 13:50 96% -
Mi, 22.01. 13:40 97% -
Mi, 22.01. 13:30 98% 1.8 km
Mi, 22.01. 13:00 98% 0.6 km
Mi, 22.01. 12:30 98% 0.4 km
Mi, 22.01. 12:00 98% 0.4 km
Mi, 22.01. 11:30 98% 1.6 km
Ortszeit Niederschlagsmenge Niederschlagsart
Mi, 22.01. 13:00 0.1 l/m2 in 6 Std. Sprühregen
Mi, 22.01. 7:00 0.0 l/m2 in 12 Std. -
Mi, 22.01. 1:00 0.0 l/m2 in 6 Std. -
Di, 21.01. 19:00 0.0 l/m2 in 12 Std. -
Di, 21.01. 13:00 0.0 l/m2 in 6 Std. -
Di, 21.01. 7:00 0.0 l/m2 in 12 Std. -
Di, 21.01. 1:00 0.0 l/m2 in 6 Std. -
Mo, 20.01. 19:00 0.1 l/m2 in 12 Std. -
Ortszeit Niederschlagsmenge Niederschlagsart
Mi, 22.01. 14:30 0.0 l/m2 in 1 Std. -
Mi, 22.01. 14:20 keine Meldung -
Mi, 22.01. 14:10 keine Meldung -
Mi, 22.01. 14:00 0.0 l/m2 in 1 Std. -
Mi, 22.01. 13:50 keine Meldung -
Mi, 22.01. 13:40 keine Meldung -
Mi, 22.01. 13:30 0.0 l/m2 in 1 Std. -
Mi, 22.01. 13:00 0.0 l/m2 in 1 Std. Sprühregen
Mi, 22.01. 12:30 0.0 l/m2 in 1 Std. -
Mi, 22.01. 12:00 0.0 l/m2 in 1 Std. -
Mi, 22.01. 11:30 0.0 l/m2 in 1 Std. -
Ortszeit Stärke Spitze Richtung
km/h Bft. km/h Grad Sektor
Mi, 22.01. 13:00 7 2 14 320° NW
Mi, 22.01. 7:00 7 2 11 260° W
Mi, 22.01. 1:00 0 0 14 - -
Di, 21.01. 19:00 6 1 15 160° S
Di, 21.01. 13:00 7 2 14 170° S
Di, 21.01. 7:00 6 1 20 80° O
Di, 21.01. 1:00 13 3 19 70° O
Mo, 20.01. 19:00 11 2 18 50° NO
Ortszeit Stärke Spitze Richtung
km/h Bft. km/h Grad Sektor
Mi, 22.01. 14:30 9 2 15 310° NW
Mi, 22.01. 14:20 9 2 - 310° NW
Mi, 22.01. 14:10 7 2 - 310° NW
Mi, 22.01. 14:00 6 1 13 310° NW
Mi, 22.01. 13:50 6 1 - 310° NW
Mi, 22.01. 13:40 9 2 - 270° W
Mi, 22.01. 13:30 7 2 11 300° NW
Mi, 22.01. 13:00 7 2 14 320° NW
Mi, 22.01. 12:30 7 2 14 270° W
Mi, 22.01. 12:00 7 2 14 300° NW
Mi, 22.01. 11:30 9 2 13 240° SW
Ortszeit Untergrenze Bedeckung Gattung
total tief tief mittel hoch
Mi, 22.01. 13:00 30 m 8/8 8/8 - - -
Mi, 22.01. 7:00 <30 m 8/8 0/8 - - -
Mi, 22.01. 1:00 60 m 8/8 8/8 - - -
Di, 21.01. 19:00 150 m 8/8 8/8 - - -
Di, 21.01. 13:00 240 m 7/8 8/8 - - -
Di, 21.01. 7:00 480 m 8/8 8/8 - - -
Di, 21.01. 1:00 - 0/8 0/8 - - -
Mo, 20.01. 19:00 - 0/8 0/8 - - -
Ortszeit Bedeckungsgrad in Achtel und Wolkenuntergrenze
Mi, 22.01. 14:30 8(30m)
Mi, 22.01. 14:20 8(30m)
Mi, 22.01. 14:10 8(30m)
Mi, 22.01. 14:00 8(60m)
Mi, 22.01. 13:50 8(60m)
Mi, 22.01. 13:40 8(60m)
Mi, 22.01. 13:30 8(30m)
Mi, 22.01. 13:00 8(30m)
Mi, 22.01. 12:30 8(30m)
Mi, 22.01. 12:00 8(30m)
Mi, 22.01. 11:30 8(30m)
Ortszeit Luftdruck NN (hPa) Tendenz (hPa in 3 Std.)
Mi, 22.01. 13:00 1037 - 0,9
Mi, 22.01. 7:00 1037 - 0,8
Mi, 22.01. 1:00 1039 - 1,2
Di, 21.01. 19:00 1041 - 0,7
Di, 21.01. 13:00 1044 - 0,9
Di, 21.01. 7:00 1045 - 0,3
Di, 21.01. 1:00 1046 - 0,9
Mo, 20.01. 19:00 1047 + 0,2
Ortszeit Luftdruck NN (hPa) Tendenz (hPa in 3 Std.)
Mi, 22.01. 14:30 1036 - 1,2
Mi, 22.01. 14:20 1036 keine Meldung
Mi, 22.01. 14:10 1036 keine Meldung
Mi, 22.01. 14:00 1036 - 1,3
Mi, 22.01. 13:50 1036 keine Meldung
Mi, 22.01. 13:40 1036 keine Meldung
Mi, 22.01. 13:30 1036 - 1,4
Mi, 22.01. 13:00 1037 - 0,9
Mi, 22.01. 12:30 1037 - 0,4
Mi, 22.01. 12:00 1037 - 0,2
Mi, 22.01. 11:30 1037 - 0,3
Ortszeit Schneehöhe (cm)
Mi, 22.01. 13:00 0
Mi, 22.01. 7:00 0
Mi, 22.01. 1:00 0
Di, 21.01. 19:00 0
Di, 21.01. 13:00 0
Di, 21.01. 7:00 0
Di, 21.01. 1:00 0
Mo, 20.01. 19:00 0
Ortszeit Schneehöhe (cm)
Mi, 22.01. 14:30 0
Mi, 22.01. 14:20 0
Mi, 22.01. 14:10 0
Mi, 22.01. 14:00 0
Mi, 22.01. 13:50 0
Mi, 22.01. 13:40 0
Mi, 22.01. 13:30 0
Mi, 22.01. 13:00 0
Mi, 22.01. 12:30 0
Mi, 22.01. 12:00 0
Mi, 22.01. 11:30 0
Link zu dieser Seite / Seite empfehlen

Das Wetter in ...